AirNav   TITAN Aviation Fuels
 
 1096 users online  

T93 Follett/Lipscomb County Airport
Follett, Texas, USA

GOING TO FOLLETT?


FAA INFORMATION EFFECTIVE 11 AUGUST 2022

Location

FAA Identifier: T93
Lat/Long: 36-26-26.9000N 100-07-25.7000W
36-26.448333N 100-07.428333W
36.4408056,-100.1238056
(estimated)
Elevation: 2600.8 ft. / 792.7 m (surveyed)
Variation: 06E (2010)
From city: 1 mile E of FOLLETT, TX
Time zone: UTC -5 (UTC -6 during Standard Time)
Zip code: 79034

Airport Operations

Airport use: Open to the public
Activation date: 08/1972
Control tower: no
ARTCC: KANSAS CITY CENTER
FSS: FORT WORTH FLIGHT SERVICE STATION
NOTAMs facility: FTW (NOTAM-D service available)
Attendance: UNATNDD
Wind indicator: no
Segmented circle: yes

Airport Communications

CTAF: 122.9
WX ASOS at GAG (19 nm SE): 128.625 (580-923-7581)
  • APCH/DEP CTL SVC PRVDD BY KANSAS CITY ARTCC (ZKC) ON FREQS 126.95/379.2 (GAGE RCAG).

Nearby radio navigation aids

VOR radial/distance  VOR name  Freq  Var
MMBr286/13.1MITBEE VORTAC115.6010E

 
NDB name  Hdg/Dist  Freq  Var  ID
PERRYTON080/30.226607EPYX .--. -.-- -..-

Airport Services

Parking: tiedowns
Bottled oxygen: NONE
Bulk oxygen: NONE

Runway Information

Runway 17/35

Dimensions: 4073 x 60 ft. / 1241 x 18 m
Surface: asphalt, in poor condition
EXTENSIVE PAVEMENT CRACKING WITH VEGETATION GROWING THROUGH. LOOSE STONES ON RWY.
13 FT WIDE STRIP OF PAVEMENT ALNG WEST EDGE OF RWY IS SPONGY AND WILL NOT SUPPORT LISTED WHEEL WEIGHT.
Weight bearing capacity: 
Single wheel: 18.0
Runway edge markings: NO PAVEMENT MARKINGS.
RUNWAY 17  RUNWAY 35
Latitude: 36-26.783833N36-26.112833N
Longitude: 100-07.430083W100-07.427717W
Elevation: 2531.5 ft.2600.8 ft.
Traffic pattern: leftleft
Runway heading: 174 magnetic, 180 true354 magnetic, 360 true
Markings: nonprecisionnonprecision
Touchdown point: yes, no lightsyes, no lights
Obstructions: 12 ft. pline, 666 ft. from runway, 229 ft. right of centerline, 38:1 slope to clear43 ft. hill, 1269 ft. from runway, 24:1 slope to clear

Airport Ownership and Management from official FAA records

Ownership: Publicly-owned
Owner: CITY OF FOLLETT
BOX 216
FOLLETT, TX 79034
Phone 806-653-2601
Manager: ROBERT WILLIAMSON
BOX 216
FOLLET, TX 79034
Phone 806-653-2601

Airport Operational Statistics

Aircraft based on the field: 3
Single engine airplanes: 3
    
Aircraft operations: 100/year *
50% transient general aviation
50% local general aviation
* for 12-month period ending 14 September 2021

Additional Remarks

NO LINE OF SIGHT BTN RWY ENDS.
FOR CD CTC KANSAS CITY ARTCC AT 913-254-8508.

Instrument Procedures

NOTE: All procedures below are presented as PDF files. If you need a reader for these files, you should download the free Adobe Reader.

NOT FOR NAVIGATION. Please procure official charts for flight.
FAA instrument procedures published for use from 11 August 2022 at 0901Z to 08 September 2022 at 0900z.

 
IAPs - Instrument Approach Procedures
RNAV (GPS) RWY 35   download (172KB)
VOR/DME-A   download (147KB)
NOTE: Special Take-Off Minimums/Departure Procedures apply   download (113KB)

Other nearby airports with instrument procedures:

1X1 - Higgins/Lipscomb County Airport (21 nm S)
KWWR - West Woodward Airport (29 nm E)
KPYX - Perryton Ochiltree County Airport (30 nm W)
KBFK - Buffalo Municipal Airport (35 nm NE)
KHHF - Hemphill County Airport (35 nm SW)
 
Loc | Ops | Rwys | IFR | FBO | Links
Com | Nav | Svcs | Stats | Notes

AirBoss

 
Area around T93 (Follett/Lipscomb County Airport)
 
Road maps at: MapQuest Bing Google
 
Aerial photo
No photo
 
Sectional chart

 
Airport distance calculator
Flying to Follett/Lipscomb County Airport? Find the distance to fly.

From to T93

Sunrise and sunset
Times for 19-Aug-2022
 Local
(UTC-5)
 Zulu
(UTC)
Morning civil twilight06:3511:35
Sunrise07:0212:02
Sunset20:2601:26
Evening civil twilight20:5301:53

Current date and time
Zulu (UTC)  19-Aug-2022 23:52:52
Local (UTC-5)  19-Aug-2022 18:52:52
 
METAR
KGAG 
19nm SE 
192253Z AUTO 17012KT 10SM CLR 35/10 A2986 RMK AO2 SLP082 T03500100
KWWR 
31nm E 
192335Z AUTO 16008KT 10SM CLR 33/11 A2989 RMK AO2
KPYX 
31nm W 
192335Z AUTO 22009KT 10SM CLR 33/06 A2989 RMK AO2 T03300063
KHHF 
35nm S 
192335Z AUTO 18011G15KT 10SM SCT100 35/10 A2988 RMK AO2 T03500102
TAF
NOTAMs
Click for the latest NOTAMs
NOTAMs are issued by the DoD/FAA and will open in a separate window not controlled by AirNav.

 

 
 

Would you like to see your business listed on this page?

 If your business provides an interesting product or service to pilots, flight crews, aircraft, or users of the Follett/Lipscomb County Airport, you should consider listing it here.  To start the listing process, click on the button below
 
Add a business
 

Other Pages about Follett/Lipscomb County Airport

Update a link
 
Copyright © AirNav, LLC. All rights reserved. Privacy Policy  Contact